Kensington, California
Current Conditions -  °F | °C
As of 9:53 AM on Thursday 23 Oct 2014 (Local Time) from KOAK Reporting Station
Broken Clouds Broken Clouds  
Wind Chill: 64°   Ceiling: 15000
Heat Index: 64°   Visibility: 10mi
Dew Point: 59°   Wind: 5mph
Humidity: 84%   Direction: 150°SSE
Pressure: 30.08"   Gusts: NA
Location:  37.8981°N, 122.279°W
Report Text: KOAK 231653Z 15004KT 10SM FEW010 BKN150 BKN180 18/15 A3008 RMK AO2 SLP185 T01780150 $
Loading
Personal Weather Stations






























Interactive Weather Map
Tropical Storm Tracking
New forecast layout! Learn more

10-Day Weather Forecast

Advertisements
Track Severe Weather on mobile